sensor_id;sensor_type;location;lat;lon;timestamp;pressure;altitude;pressure_sealevel;temperature;humidity
13952;BME280;39535;52.192;9.886;2023-07-20T00:00:37;100065.00;;;15.63;100.00
13952;BME280;39535;52.192;9.886;2023-07-20T00:03:10;100065.88;;;15.64;100.00
13952;BME280;39535;52.192;9.886;2023-07-20T00:05:38;100070.06;;;15.68;100.00
13952;BME280;39535;52.192;9.886;2023-07-20T00:08:04;100068.69;;;15.59;100.00
13952;BME280;39535;52.192;9.886;2023-07-20T00:10:31;100059.38;;;15.52;100.00
13952;BME280;39535;52.192;9.886;2023-07-20T00:12:57;100048.94;;;15.51;100.00
13952;BME280;39535;52.192;9.886;2023-07-20T00:15:23;100042.03;;;15.48;100.00
13952;BME280;39535;52.192;9.886;2023-07-20T00:17:51;100050.22;;;15.61;100.00
13952;BME280;39535;52.192;9.886;2023-07-20T00:20:18;100061.50;;;15.63;100.00
13952;BME280;39535;52.192;9.886;2023-07-20T00:22:44;100054.13;;;15.71;100.00
13952;BME280;39535;52.192;9.886;2023-07-20T00:25:10;100075.06;;;15.74;100.00
13952;BME280;39535;52.192;9.886;2023-07-20T00:27:37;100071.78;;;15.88;100.00
13952;BME280;39535;52.192;9.886;2023-07-20T00:30:04;100081.75;;;16.00;100.00
13952;BME280;39535;52.192;9.886;2023-07-20T00:32:31;100097.97;;;16.10;100.00
13952;BME280;39535;52.192;9.886;2023-07-20T00:34:59;100131.69;;;16.02;98.42
13952;BME280;39535;52.192;9.886;2023-07-20T00:37:25;100144.56;;;16.08;97.83
13952;BME280;39535;52.192;9.886;2023-07-20T00:39:53;100150.75;;;16.07;97.48
13952;BME280;39535;52.192;9.886;2023-07-20T00:42:19;100158.94;;;16.01;98.08
13952;BME280;39535;52.192;9.886;2023-07-20T00:44:45;100149.47;;;15.97;98.25
13952;BME280;39535;52.192;9.886;2023-07-20T00:47:12;100139.91;;;15.75;98.62
13952;BME280;39535;52.192;9.886;2023-07-20T00:49:39;100118.28;;;15.68;100.00
13952;BME280;39535;52.192;9.886;2023-07-20T00:52:08;100094.16;;;15.59;100.00
13952;BME280;39535;52.192;9.886;2023-07-20T00:54:34;100075.56;;;15.43;100.00
13952;BME280;39535;52.192;9.886;2023-07-20T00:57:02;100060.19;;;15.34;100.00
13952;BME280;39535;52.192;9.886;2023-07-20T00:59:29;100052.03;;;15.40;100.00
13952;BME280;39535;52.192;9.886;2023-07-20T01:01:55;100056.81;;;15.51;100.00
13952;BME280;39535;52.192;9.886;2023-07-20T01:04:22;100057.28;;;15.40;100.00
13952;BME280;39535;52.192;9.886;2023-07-20T01:06:53;100052.31;;;15.34;100.00
13952;BME280;39535;52.192;9.886;2023-07-20T01:09:28;100041.56;;;15.19;100.00
13952;BME280;39535;52.192;9.886;2023-07-20T01:12:02;100028.63;;;15.15;100.00
13952;BME280;39535;52.192;9.886;2023-07-20T01:14:31;100020.28;;;15.05;100.00
13952;BME280;39535;52.192;9.886;2023-07-20T01:16:57;100014.19;;;15.04;100.00
13952;BME280;39535;52.192;9.886;2023-07-20T01:19:24;100019.53;;;15.22;100.00
13952;BME280;39535;52.192;9.886;2023-07-20T01:21:55;100014.84;;;15.28;100.00
13952;BME280;39535;52.192;9.886;2023-07-20T01:27:31;100034.59;;;15.77;100.00
13952;BME280;39535;52.192;9.886;2023-07-20T01:30:20;100068.28;;;15.87;100.00
13952;BME280;39535;52.192;9.886;2023-07-20T01:32:52;100109.28;;;15.93;100.00
13952;BME280;39535;52.192;9.886;2023-07-20T01:35:23;100123.16;;;15.97;99.34
13952;BME280;39535;52.192;9.886;2023-07-20T01:37:52;100146.06;;;15.76;98.26
13952;BME280;39535;52.192;9.886;2023-07-20T01:40:20;100147.34;;;15.86;98.35
13952;BME280;39535;52.192;9.886;2023-07-20T01:42:47;100154.97;;;15.72;98.63
13952;BME280;39535;52.192;9.886;2023-07-20T01:45:13;100135.69;;;15.52;99.89
13952;BME280;39535;52.192;9.886;2023-07-20T01:47:40;100114.97;;;15.63;100.00
13952;BME280;39535;52.192;9.886;2023-07-20T01:50:08;100117.44;;;15.68;100.00
13952;BME280;39535;52.192;9.886;2023-07-20T01:52:35;100119.31;;;15.85;99.81
13952;BME280;39535;52.192;9.886;2023-07-20T01:55:01;100120.84;;;15.70;99.36
13952;BME280;39535;52.192;9.886;2023-07-20T01:57:29;100131.09;;;15.56;99.34
13952;BME280;39535;52.192;9.886;2023-07-20T01:59:55;100112.63;;;15.57;100.00
13952;BME280;39535;52.192;9.886;2023-07-20T02:02:25;100117.09;;;15.55;99.91
13952;BME280;39535;52.192;9.886;2023-07-20T02:04:52;100104.34;;;15.66;100.00
13952;BME280;39535;52.192;9.886;2023-07-20T02:07:20;100088.50;;;15.87;100.00
13952;BME280;39535;52.192;9.886;2023-07-20T02:09:46;100090.56;;;15.99;100.00
13952;BME280;39535;52.192;9.886;2023-07-20T02:12:13;100131.28;;;15.92;98.07
13952;BME280;39535;52.192;9.886;2023-07-20T02:14:39;100147.06;;;15.92;97.91
13952;BME280;39535;52.192;9.886;2023-07-20T02:17:06;100146.56;;;15.63;98.29
13952;BME280;39535;52.192;9.886;2023-07-20T02:19:32;100128.84;;;15.48;99.37
13952;BME280;39535;52.192;9.886;2023-07-20T02:21:59;100101.44;;;15.33;100.00
13952;BME280;39535;52.192;9.886;2023-07-20T02:24:26;100092.81;;;15.29;100.00
13952;BME280;39535;52.192;9.886;2023-07-20T02:26:53;100068.97;;;15.14;100.00
13952;BME280;39535;52.192;9.886;2023-07-20T02:29:19;100053.53;;;15.26;100.00
13952;BME280;39535;52.192;9.886;2023-07-20T02:31:46;100045.44;;;15.50;100.00
13952;BME280;39535;52.192;9.886;2023-07-20T02:34:12;100044.66;;;15.67;100.00
13952;BME280;39535;52.192;9.886;2023-07-20T02:36:38;100068.22;;;15.70;100.00
13952;BME280;39535;52.192;9.886;2023-07-20T02:39:07;100089.34;;;15.87;100.00
13952;BME280;39535;52.192;9.886;2023-07-20T02:41:35;100105.44;;;15.81;99.24
13952;BME280;39535;52.192;9.886;2023-07-20T02:44:01;100112.69;;;15.95;99.94
13952;BME280;39535;52.192;9.886;2023-07-20T02:46:28;100127.69;;;15.93;98.93
13952;BME280;39535;52.192;9.886;2023-07-20T02:48:55;100130.69;;;16.04;98.82
13952;BME280;39535;52.192;9.886;2023-07-20T02:51:22;100144.28;;;16.14;98.33
13952;BME280;39535;52.192;9.886;2023-07-20T02:53:48;100161.44;;;16.23;97.76
13952;BME280;39535;52.192;9.886;2023-07-20T02:56:15;100155.81;;;16.31;98.29
13952;BME280;39535;52.192;9.886;2023-07-20T02:58:44;100150.34;;;16.35;98.10
13952;BME280;39535;52.192;9.886;2023-07-20T03:01:11;100166.81;;;16.39;97.35
13952;BME280;39535;52.192;9.886;2023-07-20T03:03:38;100161.41;;;16.42;97.41
13952;BME280;39535;52.192;9.886;2023-07-20T03:06:04;100170.25;;;16.41;96.65
13952;BME280;39535;52.192;9.886;2023-07-20T03:08:31;100194.19;;;16.36;95.73
13952;BME280;39535;52.192;9.886;2023-07-20T03:10:57;100198.53;;;16.37;95.80
13952;BME280;39535;52.192;9.886;2023-07-20T03:13:24;100194.88;;;16.40;96.00
13952;BME280;39535;52.192;9.886;2023-07-20T03:15:53;100203.88;;;16.36;95.76
13952;BME280;39535;52.192;9.886;2023-07-20T03:18:19;100200.09;;;16.41;96.17
13952;BME280;39535;52.192;9.886;2023-07-20T03:20:45;100202.50;;;16.46;95.81
13952;BME280;39535;52.192;9.886;2023-07-20T03:23:14;100202.56;;;16.44;95.76
13952;BME280;39535;52.192;9.886;2023-07-20T03:25:40;100198.94;;;16.47;95.87
13952;BME280;39535;52.192;9.886;2023-07-20T03:28:07;100193.75;;;16.45;95.94
13952;BME280;39535;52.192;9.886;2023-07-20T03:30:34;100184.13;;;16.44;95.84
13952;BME280;39535;52.192;9.886;2023-07-20T03:33:02;100187.59;;;16.45;95.79
13952;BME280;39535;52.192;9.886;2023-07-20T03:35:29;100186.69;;;16.46;95.93
13952;BME280;39535;52.192;9.886;2023-07-20T03:37:56;100163.69;;;16.50;96.58
13952;BME280;39535;52.192;9.886;2023-07-20T03:40:22;100171.44;;;16.53;96.84
13952;BME280;39535;52.192;9.886;2023-07-20T03:42:49;100174.84;;;16.55;96.58
13952;BME280;39535;52.192;9.886;2023-07-20T03:45:16;100188.03;;;16.55;95.48
13952;BME280;39535;52.192;9.886;2023-07-20T03:47:42;100211.75;;;16.55;93.99
13952;BME280;39535;52.192;9.886;2023-07-20T03:50:11;100227.78;;;16.50;93.86
13952;BME280;39535;52.192;9.886;2023-07-20T03:52:37;100225.06;;;16.52;93.89
13952;BME280;39535;52.192;9.886;2023-07-20T03:55:04;100214.66;;;16.48;94.15
13952;BME280;39535;52.192;9.886;2023-07-20T03:57:31;100205.91;;;16.48;94.67
13952;BME280;39535;52.192;9.886;2023-07-20T03:59:58;100180.06;;;16.56;96.28
13952;BME280;39535;52.192;9.886;2023-07-20T04:02:24;100175.44;;;16.61;96.44
13952;BME280;39535;52.192;9.886;2023-07-20T04:04:51;100177.13;;;16.62;95.38
13952;BME280;39535;52.192;9.886;2023-07-20T04:07:18;100207.84;;;16.63;94.24
13952;BME280;39535;52.192;9.886;2023-07-20T04:09:45;100227.19;;;16.62;93.25
13952;BME280;39535;52.192;9.886;2023-07-20T04:12:11;100237.81;;;16.61;93.10
13952;BME280;39535;52.192;9.886;2023-07-20T04:14:38;100237.91;;;16.59;93.11
13952;BME280;39535;52.192;9.886;2023-07-20T04:17:04;100237.91;;;16.59;93.18
13952;BME280;39535;52.192;9.886;2023-07-20T04:19:30;100233.53;;;16.58;93.48
13952;BME280;39535;52.192;9.886;2023-07-20T04:21:57;100233.31;;;16.63;93.86
13952;BME280;39535;52.192;9.886;2023-07-20T04:24:25;100233.91;;;16.51;92.99
13952;BME280;39535;52.192;9.886;2023-07-20T04:26:51;100258.75;;;16.26;92.27
13952;BME280;39535;52.192;9.886;2023-07-20T04:29:17;100250.53;;;16.13;93.10
13952;BME280;39535;52.192;9.886;2023-07-20T04:31:44;100242.28;;;16.02;93.60
13952;BME280;39535;52.192;9.886;2023-07-20T04:34:10;100221.75;;;15.89;94.52
13952;BME280;39535;52.192;9.886;2023-07-20T04:36:37;100214.63;;;15.71;94.96
13952;BME280;39535;52.192;9.886;2023-07-20T04:39:03;100177.50;;;15.79;97.56
13952;BME280;39535;52.192;9.886;2023-07-20T04:41:31;100160.19;;;15.73;98.16
13952;BME280;39535;52.192;9.886;2023-07-20T04:43:57;100137.16;;;15.78;99.20
13952;BME280;39535;52.192;9.886;2023-07-20T04:46:24;100109.34;;;15.73;100.00
13952;BME280;39535;52.192;9.886;2023-07-20T04:48:50;100082.91;;;15.76;100.00
13952;BME280;39535;52.192;9.886;2023-07-20T04:51:17;100086.47;;;15.94;100.00
13952;BME280;39535;52.192;9.886;2023-07-20T04:53:46;100091.91;;;16.08;100.00
13952;BME280;39535;52.192;9.886;2023-07-20T04:56:13;100074.75;;;16.18;100.00
13952;BME280;39535;52.192;9.886;2023-07-20T04:58:41;100083.44;;;16.20;100.00
13952;BME280;39535;52.192;9.886;2023-07-20T05:01:08;100093.81;;;15.85;100.00
13952;BME280;39535;52.192;9.886;2023-07-20T05:03:34;100082.41;;;15.47;100.00
13952;BME280;39535;52.192;9.886;2023-07-20T05:06:01;100063.16;;;15.46;100.00
13952;BME280;39535;52.192;9.886;2023-07-20T05:08:27;100050.84;;;15.47;100.00
13952;BME280;39535;52.192;9.886;2023-07-20T05:10:53;100051.69;;;15.28;100.00
13952;BME280;39535;52.192;9.886;2023-07-20T05:13:20;100032.03;;;15.17;100.00
13952;BME280;39535;52.192;9.886;2023-07-20T05:15:51;100015.72;;;15.29;100.00
13952;BME280;39535;52.192;9.886;2023-07-20T05:18:17;100018.91;;;15.36;100.00
13952;BME280;39535;52.192;9.886;2023-07-20T05:20:45;100019.25;;;15.28;100.00
13952;BME280;39535;52.192;9.886;2023-07-20T05:23:12;100023.88;;;15.23;100.00
13952;BME280;39535;52.192;9.886;2023-07-20T05:25:38;100015.03;;;14.84;100.00
13952;BME280;39535;52.192;9.886;2023-07-20T05:28:05;99989.94;;;14.57;100.00
13952;BME280;39535;52.192;9.886;2023-07-20T05:30:31;99983.72;;;14.80;100.00
13952;BME280;39535;52.192;9.886;2023-07-20T05:32:59;99997.84;;;14.77;100.00
13952;BME280;39535;52.192;9.886;2023-07-20T05:35:26;100018.72;;;14.80;100.00
13952;BME280;39535;52.192;9.886;2023-07-20T05:37:53;100027.94;;;14.91;100.00
13952;BME280;39535;52.192;9.886;2023-07-20T05:40:19;100051.31;;;14.54;100.00
13952;BME280;39535;52.192;9.886;2023-07-20T05:42:46;100042.13;;;14.44;100.00
13952;BME280;39535;52.192;9.886;2023-07-20T05:45:14;100027.34;;;14.41;100.00
13952;BME280;39535;52.192;9.886;2023-07-20T05:47:41;100026.41;;;14.42;100.00
13952;BME280;39535;52.192;9.886;2023-07-20T05:50:09;100026.28;;;14.67;100.00
13952;BME280;39535;52.192;9.886;2023-07-20T05:52:36;100036.53;;;14.74;100.00
13952;BME280;39535;52.192;9.886;2023-07-20T05:55:04;100035.47;;;14.78;100.00
13952;BME280;39535;52.192;9.886;2023-07-20T05:57:31;100054.91;;;14.94;100.00
13952;BME280;39535;52.192;9.886;2023-07-20T05:59:57;100073.78;;;14.83;100.00
13952;BME280;39535;52.192;9.886;2023-07-20T06:02:24;100073.84;;;14.82;100.00
13952;BME280;39535;52.192;9.886;2023-07-20T06:04:50;100076.31;;;14.64;100.00
13952;BME280;39535;52.192;9.886;2023-07-20T06:07:18;100055.97;;;14.47;100.00
13952;BME280;39535;52.192;9.886;2023-07-20T06:09:44;100021.41;;;14.16;100.00
13952;BME280;39535;52.192;9.886;2023-07-20T06:12:11;99988.38;;;14.10;100.00
13952;BME280;39535;52.192;9.886;2023-07-20T06:14:37;99978.06;;;14.05;100.00
13952;BME280;39535;52.192;9.886;2023-07-20T06:17:05;99975.09;;;14.35;100.00
13952;BME280;39535;52.192;9.886;2023-07-20T06:19:31;99991.72;;;14.56;100.00
13952;BME280;39535;52.192;9.886;2023-07-20T06:21:57;99992.91;;;14.69;100.00
13952;BME280;39535;52.192;9.886;2023-07-20T06:24:25;99990.09;;;14.74;100.00
13952;BME280;39535;52.192;9.886;2023-07-20T06:26:52;100011.63;;;14.82;100.00
13952;BME280;39535;52.192;9.886;2023-07-20T06:29:18;100024.44;;;14.69;100.00
13952;BME280;39535;52.192;9.886;2023-07-20T06:31:44;100025.63;;;14.62;100.00
13952;BME280;39535;52.192;9.886;2023-07-20T06:34:11;100023.06;;;14.61;100.00
13952;BME280;39535;52.192;9.886;2023-07-20T06:36:37;100029.44;;;14.76;100.00
13952;BME280;39535;52.192;9.886;2023-07-20T06:39:04;100041.19;;;14.87;100.00
13952;BME280;39535;52.192;9.886;2023-07-20T06:41:32;100057.88;;;14.86;100.00
13952;BME280;39535;52.192;9.886;2023-07-20T06:43:58;100065.81;;;15.05;100.00
13952;BME280;39535;52.192;9.886;2023-07-20T06:46:25;100082.00;;;15.17;100.00
13952;BME280;39535;52.192;9.886;2023-07-20T06:48:52;100091.97;;;15.29;100.00
13952;BME280;39535;52.192;9.886;2023-07-20T06:51:18;100106.75;;;15.32;100.00
13952;BME280;39535;52.192;9.886;2023-07-20T06:53:45;100114.69;;;15.51;100.00
13952;BME280;39535;52.192;9.886;2023-07-20T06:56:11;100125.59;;;15.41;100.00
13952;BME280;39535;52.192;9.886;2023-07-20T06:58:40;100131.75;;;15.61;100.00
13952;BME280;39535;52.192;9.886;2023-07-20T07:01:07;100142.00;;;15.67;100.00
13952;BME280;39535;52.192;9.886;2023-07-20T07:03:33;100168.91;;;15.34;100.00
13952;BME280;39535;52.192;9.886;2023-07-20T07:06:00;100132.06;;;14.93;100.00
13952;BME280;39535;52.192;9.886;2023-07-20T07:08:26;100108.72;;;14.85;100.00
13952;BME280;39535;52.192;9.886;2023-07-20T07:10:52;100092.66;;;14.93;100.00
13952;BME280;39535;52.192;9.886;2023-07-20T07:13:19;100090.41;;;15.04;100.00
13952;BME280;39535;52.192;9.886;2023-07-20T07:15:47;100102.25;;;15.15;100.00
13952;BME280;39535;52.192;9.886;2023-07-20T07:18:13;100114.28;;;15.20;100.00
13952;BME280;39535;52.192;9.886;2023-07-20T07:20:39;100142.94;;;15.26;100.00
13952;BME280;39535;52.192;9.886;2023-07-20T07:23:06;100152.66;;;15.24;100.00
13952;BME280;39535;52.192;9.886;2023-07-20T07:25:32;100170.84;;;15.29;100.00
13952;BME280;39535;52.192;9.886;2023-07-20T07:27:59;100169.47;;;15.41;100.00
13952;BME280;39535;52.192;9.886;2023-07-20T07:30:25;100169.59;;;15.58;100.00
13952;BME280;39535;52.192;9.886;2023-07-20T07:32:53;100203.47;;;15.45;100.00
13952;BME280;39535;52.192;9.886;2023-07-20T07:35:19;100216.63;;;15.45;100.00
13952;BME280;39535;52.192;9.886;2023-07-20T07:37:47;100200.75;;;15.67;100.00
13952;BME280;39535;52.192;9.886;2023-07-20T07:40:14;100209.53;;;15.88;100.00
13952;BME280;39535;52.192;9.886;2023-07-20T07:42:40;100263.13;;;16.06;100.00
13952;BME280;39535;52.192;9.886;2023-07-20T07:45:07;100312.25;;;16.07;100.00
13952;BME280;39535;52.192;9.886;2023-07-20T07:47:34;100307.28;;;16.20;100.00
13952;BME280;39535;52.192;9.886;2023-07-20T07:50:02;100325.84;;;16.17;99.29
13952;BME280;39535;52.192;9.886;2023-07-20T07:52:29;100389.47;;;16.08;96.39
13952;BME280;39535;52.192;9.886;2023-07-20T07:54:55;100402.00;;;16.01;96.04
13952;BME280;39535;52.192;9.886;2023-07-20T07:57:21;100421.06;;;16.08;95.30
13952;BME280;39535;52.192;9.886;2023-07-20T07:59:48;100417.00;;;16.21;96.17
13952;BME280;39535;52.192;9.886;2023-07-20T08:02:15;100412.94;;;16.33;96.63
13952;BME280;39535;52.192;9.886;2023-07-20T08:04:41;100422.06;;;16.26;94.35
13952;BME280;39535;52.192;9.886;2023-07-20T08:07:09;100442.00;;;16.52;94.56
13952;BME280;39535;52.192;9.886;2023-07-20T08:09:35;100424.16;;;16.38;94.92
13952;BME280;39535;52.192;9.886;2023-07-20T08:12:02;100415.59;;;16.54;95.46
13952;BME280;39535;52.192;9.886;2023-07-20T08:14:29;100422.44;;;16.77;94.07
13952;BME280;39535;52.192;9.886;2023-07-20T08:16:55;100478.84;;;16.95;90.66
13952;BME280;39535;52.192;9.886;2023-07-20T08:19:22;100528.19;;;16.91;88.94
13952;BME280;39535;52.192;9.886;2023-07-20T08:21:49;100511.56;;;16.68;92.27
13952;BME280;39535;52.192;9.886;2023-07-20T08:24:16;100466.09;;;16.43;93.73
13952;BME280;39535;52.192;9.886;2023-07-20T08:26:43;100435.66;;;16.56;94.43
13952;BME280;39535;52.192;9.886;2023-07-20T08:29:09;100452.94;;;16.63;92.16
13952;BME280;39535;52.192;9.886;2023-07-20T08:31:35;100477.50;;;16.84;90.33
13952;BME280;39535;52.192;9.886;2023-07-20T08:34:02;100536.34;;;17.05;89.07
13952;BME280;39535;52.192;9.886;2023-07-20T08:36:28;100568.72;;;17.09;87.00
13952;BME280;39535;52.192;9.886;2023-07-20T08:38:56;100620.75;;;17.05;84.81
13952;BME280;39535;52.192;9.886;2023-07-20T08:41:24;100674.28;;;17.07;82.33
13952;BME280;39535;52.192;9.886;2023-07-20T08:43:54;100648.97;;;17.03;85.90
13952;BME280;39535;52.192;9.886;2023-07-20T08:46:28;100700.66;;;17.07;81.61
13952;BME280;39535;52.192;9.886;2023-07-20T08:48:56;100741.59;;;16.96;79.96
13952;BME280;39535;52.192;9.886;2023-07-20T08:51:23;100736.19;;;17.21;81.54
13952;BME280;39535;52.192;9.886;2023-07-20T08:53:51;100707.31;;;17.16;81.49
13952;BME280;39535;52.192;9.886;2023-07-20T08:56:18;100795.19;;;17.18;76.99
13952;BME280;39535;52.192;9.886;2023-07-20T08:58:47;100793.34;;;17.42;79.05
13952;BME280;39535;52.192;9.886;2023-07-20T09:01:14;100833.41;;;17.52;76.45
13952;BME280;39535;52.192;9.886;2023-07-20T09:03:41;100851.25;;;17.45;75.67
13952;BME280;39535;52.192;9.886;2023-07-20T09:06:09;100867.03;;;17.47;76.12
13952;BME280;39535;52.192;9.886;2023-07-20T09:08:37;100883.06;;;17.42;74.52
13952;BME280;39535;52.192;9.886;2023-07-20T09:11:04;100916.94;;;17.53;72.94
13952;BME280;39535;52.192;9.886;2023-07-20T09:13:32;100954.97;;;17.70;72.23
13952;BME280;39535;52.192;9.886;2023-07-20T09:16:00;100968.63;;;17.81;71.64
13952;BME280;39535;52.192;9.886;2023-07-20T09:18:28;101007.53;;;17.76;69.24
13952;BME280;39535;52.192;9.886;2023-07-20T09:20:58;101015.41;;;17.77;71.39
13952;BME280;39535;52.192;9.886;2023-07-20T09:23:30;100949.44;;;17.76;73.14
13952;BME280;39535;52.192;9.886;2023-07-20T09:25:57;100938.50;;;17.64;72.13
13952;BME280;39535;52.192;9.886;2023-07-20T09:28:24;100963.16;;;17.63;70.78
13952;BME280;39535;52.192;9.886;2023-07-20T09:30:50;101039.63;;;17.66;67.76
13952;BME280;39535;52.192;9.886;2023-07-20T09:33:22;101063.53;;;17.85;68.02
13952;BME280;39535;52.192;9.886;2023-07-20T09:35:49;101108.53;;;17.82;64.75
13952;BME280;39535;52.192;9.886;2023-07-20T09:38:15;101108.38;;;17.87;67.84
13952;BME280;39535;52.192;9.886;2023-07-20T09:40:42;101128.75;;;17.83;66.66
13952;BME280;39535;52.192;9.886;2023-07-20T09:43:09;101145.03;;;17.71;65.78
13952;BME280;39535;52.192;9.886;2023-07-20T09:45:39;101173.72;;;17.82;63.94
13952;BME280;39535;52.192;9.886;2023-07-20T09:48:07;101217.19;;;17.97;63.56
13952;BME280;39535;52.192;9.886;2023-07-20T09:50:39;101224.38;;;18.17;63.33
13952;BME280;39535;52.192;9.886;2023-07-20T09:53:06;101317.66;;;18.19;58.80
13952;BME280;39535;52.192;9.886;2023-07-20T09:55:34;101348.53;;;18.42;59.57
13952;BME280;39535;52.192;9.886;2023-07-20T09:58:02;101327.97;;;18.50;59.18
13952;BME280;39535;52.192;9.886;2023-07-20T10:00:32;101339.81;;;18.63;60.02
13952;BME280;39535;52.192;9.886;2023-07-20T10:03:02;101329.38;;;18.35;60.24
13952;BME280;39535;52.192;9.886;2023-07-20T10:05:32;101295.78;;;18.39;62.34
13952;BME280;39535;52.192;9.886;2023-07-20T10:08:02;101314.66;;;18.30;59.83
13952;BME280;39535;52.192;9.886;2023-07-20T10:10:31;101365.63;;;18.08;58.10
13952;BME280;39535;52.192;9.886;2023-07-20T10:13:00;101361.59;;;18.21;58.79
13952;BME280;39535;52.192;9.886;2023-07-20T10:15:30;101379.03;;;18.27;58.70
13952;BME280;39535;52.192;9.886;2023-07-20T10:18:02;101377.94;;;18.33;58.33
13952;BME280;39535;52.192;9.886;2023-07-20T10:20:31;101352.16;;;18.63;59.78
13952;BME280;39535;52.192;9.886;2023-07-20T10:23:00;101308.63;;;18.95;61.41
13952;BME280;39535;52.192;9.886;2023-07-20T10:25:28;101455.91;;;18.71;52.71
13952;BME280;39535;52.192;9.886;2023-07-20T10:27:56;101464.97;;;18.89;55.13
13952;BME280;39535;52.192;9.886;2023-07-20T10:30:24;101450.28;;;19.04;55.50
13952;BME280;39535;52.192;9.886;2023-07-20T10:32:52;101430.41;;;19.16;56.36
13952;BME280;39535;52.192;9.886;2023-07-20T10:35:18;101455.78;;;19.21;53.55
13952;BME280;39535;52.192;9.886;2023-07-20T10:37:46;101508.16;;;19.37;52.48
13952;BME280;39535;52.192;9.886;2023-07-20T10:40:32;101526.03;;;19.30;52.86
13952;BME280;39535;52.192;9.886;2023-07-20T10:43:00;101558.63;;;19.32;51.46
13952;BME280;39535;52.192;9.886;2023-07-20T10:45:34;101595.31;;;19.43;51.43
13952;BME280;39535;52.192;9.886;2023-07-20T10:48:03;101595.88;;;19.51;50.87
13952;BME280;39535;52.192;9.886;2023-07-20T10:50:32;101569.44;;;19.73;52.03
13952;BME280;39535;52.192;9.886;2023-07-20T10:53:04;101600.75;;;19.15;51.67
13952;BME280;39535;52.192;9.886;2023-07-20T10:55:32;101559.00;;;19.23;54.05
13952;BME280;39535;52.192;9.886;2023-07-20T10:58:17;101542.75;;;19.32;51.82
13952;BME280;39535;52.192;9.886;2023-07-20T11:00:57;101570.38;;;19.49;51.26
13952;BME280;39535;52.192;9.886;2023-07-20T11:03:29;101580.25;;;19.67;50.94
13952;BME280;39535;52.192;9.886;2023-07-20T11:05:57;101569.09;;;19.59;50.62
13952;BME280;39535;52.192;9.886;2023-07-20T11:08:38;101559.72;;;19.74;52.07
13952;BME280;39535;52.192;9.886;2023-07-20T11:11:24;101549.75;;;19.57;51.34
13952;BME280;39535;52.192;9.886;2023-07-20T11:13:57;101533.63;;;19.63;52.09
13952;BME280;39535;52.192;9.886;2023-07-20T11:16:39;101520.31;;;19.64;51.44
13952;BME280;39535;52.192;9.886;2023-07-20T11:19:13;101553.56;;;19.50;50.55
13952;BME280;39535;52.192;9.886;2023-07-20T11:21:42;101531.03;;;19.61;51.31
13952;BME280;39535;52.192;9.886;2023-07-20T11:24:08;101534.28;;;19.68;51.74
13952;BME280;39535;52.192;9.886;2023-07-20T11:26:44;101534.50;;;19.86;51.53
13952;BME280;39535;52.192;9.886;2023-07-20T11:29:12;101570.25;;;19.75;50.83
13952;BME280;39535;52.192;9.886;2023-07-20T11:31:39;101543.41;;;19.61;52.21
13952;BME280;39535;52.192;9.886;2023-07-20T11:34:09;101528.38;;;19.61;52.05
13952;BME280;39535;52.192;9.886;2023-07-20T11:36:38;101524.94;;;19.36;51.68
13952;BME280;39535;52.192;9.886;2023-07-20T11:39:06;101524.56;;;19.23;51.56
13952;BME280;39535;52.192;9.886;2023-07-20T11:41:34;101511.63;;;19.15;52.33
13952;BME280;39535;52.192;9.886;2023-07-20T11:44:02;101479.19;;;19.32;53.34
13952;BME280;39535;52.192;9.886;2023-07-20T11:46:29;101451.13;;;19.28;53.18
13952;BME280;39535;52.192;9.886;2023-07-20T11:48:57;101451.06;;;19.30;53.60
13952;BME280;39535;52.192;9.886;2023-07-20T11:51:25;101426.50;;;19.70;53.25
13952;BME280;39535;52.192;9.886;2023-07-20T11:53:52;101458.66;;;20.67;50.22
13952;BME280;39535;52.192;9.886;2023-07-20T11:56:19;101516.56;;;21.55;48.81
13952;BME280;39535;52.192;9.886;2023-07-20T11:58:46;101580.56;;;22.59;46.74
13952;BME280;39535;52.192;9.886;2023-07-20T12:01:17;101682.38;;;22.28;46.34
13952;BME280;39535;52.192;9.886;2023-07-20T12:03:44;101675.28;;;21.89;47.92
13952;BME280;39535;52.192;9.886;2023-07-20T12:06:10;101679.44;;;21.76;47.80
13952;BME280;39535;52.192;9.886;2023-07-20T12:08:41;101659.28;;;20.91;49.51
13952;BME280;39535;52.192;9.886;2023-07-20T12:11:08;101602.00;;;20.43;51.82
13952;BME280;39535;52.192;9.886;2023-07-20T12:13:36;101548.66;;;20.29;51.33
13952;BME280;39535;52.192;9.886;2023-07-20T12:16:08;101516.28;;;20.00;51.26
13952;BME280;39535;52.192;9.886;2023-07-20T12:18:36;101490.25;;;19.65;52.49
13952;BME280;39535;52.192;9.886;2023-07-20T12:21:02;101455.50;;;19.51;52.52
13952;BME280;39535;52.192;9.886;2023-07-20T12:23:35;101423.69;;;19.53;53.32
13952;BME280;39535;52.192;9.886;2023-07-20T12:26:01;101395.09;;;19.61;53.32
13952;BME280;39535;52.192;9.886;2023-07-20T12:28:28;101383.47;;;19.86;53.29
13952;BME280;39535;52.192;9.886;2023-07-20T12:30:55;101369.97;;;20.52;52.39
13952;BME280;39535;52.192;9.886;2023-07-20T12:33:22;101420.50;;;20.88;50.34
13952;BME280;39535;52.192;9.886;2023-07-20T12:35:50;101446.31;;;21.41;50.43
13952;BME280;39535;52.192;9.886;2023-07-20T12:38:21;101491.31;;;21.83;49.21
13952;BME280;39535;52.192;9.886;2023-07-20T12:40:47;101547.41;;;22.13;47.63
13952;BME280;39535;52.192;9.886;2023-07-20T12:43:14;101619.41;;;21.91;45.82
13952;BME280;39535;52.192;9.886;2023-07-20T12:45:40;101636.63;;;21.82;46.90
13952;BME280;39535;52.192;9.886;2023-07-20T12:48:09;101664.38;;;21.95;45.32
13952;BME280;39535;52.192;9.886;2023-07-20T12:50:35;101701.22;;;21.84;45.70